This is the latest recevied weather packets stored in our database for station/object CE7LGA-10. If no packets are shown the sender has not sent any weather packets the latest 10 day(s).
| Time | Temp. | Humidity | Pressure | Rain* | Wind** | Luminosity | Snow |
|---|---|---|---|---|---|---|---|
| 1787890105 | 15.56° C | 62% | 995.6 hPa | - | - | - | - |
| 1787889205 | 15.56° C | 60% | 995.3 hPa | - | - | - | - |
| 1787888305 | 16.11° C | 59% | 995.1 hPa | - | - | - | - |
| 1787887405 | 17.22° C | 59% | 995.2 hPa | - | - | - | - |
| 1787886505 | 16.67° C | 58% | 994.9 hPa | - | - | - | - |
| 1787885605 | 20° C | 56% | 994.7 hPa | - | - | - | - |
| 1787884704 | 19.44° C | 56% | 994.7 hPa | - | - | - | - |
| 1787883804 | 20° C | 57% | 994.5 hPa | - | - | - | - |
| 1787882904 | 20° C | 58% | 994.6 hPa | - | - | - | - |
| 1787882004 | 19.44° C | 58% | 994.8 hPa | - | - | - | - |
| 1787881103 | 19.44° C | 57% | 994.6 hPa | - | - | - | - |
| 1787880203 | 20° C | 59% | 994.2 hPa | - | - | - | - |
| 1787879303 | 20° C | 58% | 994 hPa | - | - | - | - |
| 1787878403 | 20.56° C | 58% | 993.9 hPa | - | - | - | - |
| 1787877503 | 20.56° C | 59% | 993.9 hPa | - | - | - | - |
| 1787876603 | 21.11° C | 60% | 993.6 hPa | - | - | - | - |
| 1787875703 | 20.56° C | 61% | 993.4 hPa | - | - | - | - |
| 1787874803 | 20° C | 61% | 993.3 hPa | - | - | - | - |
| 1787873902 | 20° C | 62% | 993.3 hPa | - | - | - | - |
| 1787873002 | 19.44° C | 64% | 993.1 hPa | - | - | - | - |
| 1787872102 | 18.89° C | 65% | 992.8 hPa | - | - | - | - |
| 1787871202 | 16.11° C | 69% | 992.6 hPa | - | - | - | - |
| 1787870304 | 15.56° C | 71% | 992.5 hPa | - | - | - | - |
| 1787869404 | 15.56° C | 69% | 992.4 hPa | - | - | - | - |
| 1787868504 | 15.56° C | 70% | 992.3 hPa | - | - | - | - |
* Rain since midnight (hover to see other rain measurements)
** Current wind speed in m/s (hover to see current wind gust speed)